sensor_id;sensor_type;location;lat;lon;timestamp;temperature;humidity
71551;DHT22;59367;48.414;9.872;2023-03-08T00:01:08;6.465248108;43.47229004
71551;DHT22;59367;48.414;9.872;2023-03-08T00:02:17;6.449226379;43.60961914
71551;DHT22;59367;48.414;9.872;2023-03-08T00:03:27;6.449226379;43.55316162
71551;DHT22;59367;48.414;9.872;2023-03-08T00:04:37;6.465248108;43.63708496
71551;DHT22;59367;48.414;9.872;2023-03-08T00:05:45;6.465248108;43.54400635
71551;DHT22;59367;48.414;9.872;2023-03-08T00:06:53;6.505302429;43.6416626
71551;DHT22;59367;48.414;9.872;2023-03-08T00:08:03;6.521324158;43.90106201
71551;DHT22;59367;48.414;9.872;2023-03-08T00:09:12;6.534675598;43.47991943
71551;DHT22;59367;48.414;9.872;2023-03-08T00:10:29;6.521324158;43.53637695
71551;DHT22;59367;48.414;9.872;2023-03-08T00:11:37;6.577400208;43.6126709
71551;DHT22;59367;48.414;9.872;2023-03-08T00:12:46;6.561378479;43.28308105
71551;DHT22;59367;48.414;9.872;2023-03-08T00:13:55;6.561378479;43.35327148
71551;DHT22;59367;48.414;9.872;2023-03-08T00:15:12;6.604103088;43.52111816
71551;DHT22;59367;48.414;9.872;2023-03-08T00:16:21;6.662853241;43.42041016
71551;DHT22;59367;48.414;9.872;2023-03-08T00:17:33;6.678874969;43.36547852
71551;DHT22;59367;48.414;9.872;2023-03-08T00:18:44;6.69222641;43.36700439
71551;DHT22;59367;48.414;9.872;2023-03-08T00:19:54;6.69222641;43.53027344
71551;DHT22;59367;48.414;9.872;2023-03-08T00:21:07;6.678874969;43.56384277
71551;DHT22;59367;48.414;9.872;2023-03-08T00:22:16;6.662853241;43.52722168
71551;DHT22;59367;48.414;9.872;2023-03-08T00:23:24;6.63615036;43.53637695
71551;DHT22;59367;48.414;9.872;2023-03-08T00:24:32;6.63615036;43.45397949
71551;DHT22;59367;48.414;9.872;2023-03-08T00:25:40;6.649501801;43.85528564
71551;DHT22;59367;48.414;9.872;2023-03-08T00:26:48;6.649501801;43.59588623
71551;DHT22;59367;48.414;9.872;2023-03-08T00:27:56;6.63615036;43.94836426
71551;DHT22;59367;48.414;9.872;2023-03-08T00:29:04;6.604103088;43.7789917
71551;DHT22;59367;48.414;9.872;2023-03-08T00:30:14;6.577400208;43.48449707
71551;DHT22;59367;48.414;9.872;2023-03-08T00:31:22;6.577400208;43.69506836
71551;DHT22;59367;48.414;9.872;2023-03-08T00:32:31;6.561378479;43.74084473
71551;DHT22;59367;48.414;9.872;2023-03-08T00:33:40;6.548027039;43.53942871
71551;DHT22;59367;48.414;9.872;2023-03-08T00:34:49;6.534675598;43.60809326
71551;DHT22;59367;48.414;9.872;2023-03-08T00:36:05;6.534675598;43.69049072
71551;DHT22;59367;48.414;9.872;2023-03-08T00:37:13;6.548027039;43.62182617
71551;DHT22;59367;48.414;9.872;2023-03-08T00:38:21;6.548027039;43.68133545
71551;DHT22;59367;48.414;9.872;2023-03-08T00:39:29;6.534675598;43.77288818
71551;DHT22;59367;48.414;9.872;2023-03-08T00:40:37;6.478599548;43.7789917
71551;DHT22;59367;48.414;9.872;2023-03-08T00:41:45;6.465248108;43.99871826
71551;DHT22;59367;48.414;9.872;2023-03-08T00:42:53;6.465248108;43.78814697
71551;DHT22;59367;48.414;9.872;2023-03-08T00:44:01;6.449226379;43.6920166
71551;DHT22;59367;48.414;9.872;2023-03-08T00:45:10;6.478599548;43.81408691
71551;DHT22;59367;48.414;9.872;2023-03-08T00:46:18;6.465248108;43.56689453
71551;DHT22;59367;48.414;9.872;2023-03-08T00:47:28;6.465248108;43.75457764
71551;DHT22;59367;48.414;9.872;2023-03-08T00:48:36;6.465248108;43.74084473
71551;DHT22;59367;48.414;9.872;2023-03-08T00:49:44;6.478599548;43.69506836
71551;DHT22;59367;48.414;9.872;2023-03-08T00:50:52;6.548027039;43.57299805
71551;DHT22;59367;48.414;9.872;2023-03-08T00:52:00;6.521324158;43.94683838
71551;DHT22;59367;48.414;9.872;2023-03-08T00:53:08;6.521324158;43.73626709
71551;DHT22;59367;48.414;9.872;2023-03-08T00:54:16;6.534675598;43.70117188
71551;DHT22;59367;48.414;9.872;2023-03-08T00:55:24;6.521324158;43.66455078
71551;DHT22;59367;48.414;9.872;2023-03-08T00:56:32;6.534675598;43.78356934
71551;DHT22;59367;48.414;9.872;2023-03-08T00:57:40;6.491950989;43.73321533
71551;DHT22;59367;48.414;9.872;2023-03-08T00:58:49;6.521324158;43.84155273
71551;DHT22;59367;48.414;9.872;2023-03-08T00:59:57;6.505302429;43.98040771
71551;DHT22;59367;48.414;9.872;2023-03-08T01:01:05;6.505302429;43.8873291
71551;DHT22;59367;48.414;9.872;2023-03-08T01:02:13;6.534675598;43.80645752
71551;DHT22;59367;48.414;9.872;2023-03-08T01:03:22;6.534675598;43.84155273
71551;DHT22;59367;48.414;9.872;2023-03-08T01:04:37;6.491950989;44.04907227
71551;DHT22;59367;48.414;9.872;2023-03-08T01:05:56;6.521324158;44.25354004
71551;DHT22;59367;48.414;9.872;2023-03-08T01:07:08;6.521324158;44.21844482
71551;DHT22;59367;48.414;9.872;2023-03-08T01:08:19;6.534675598;44.39544678
71551;DHT22;59367;48.414;9.872;2023-03-08T01:09:29;6.491950989;44.14367676
71551;DHT22;59367;48.414;9.872;2023-03-08T01:10:38;6.521324158;44.39239502
71551;DHT22;59367;48.414;9.872;2023-03-08T01:11:46;6.534675598;44.19555664
71551;DHT22;59367;48.414;9.872;2023-03-08T01:12:57;6.534675598;44.46563721
71551;DHT22;59367;48.414;9.872;2023-03-08T01:14:09;6.465248108;44.03381348
71551;DHT22;59367;48.414;9.872;2023-03-08T01:15:30;6.449226379;43.68286133
71551;DHT22;59367;48.414;9.872;2023-03-08T01:16:39;6.379798889;44.13146973
71551;DHT22;59367;48.414;9.872;2023-03-08T01:17:53;6.379798889;44.85931396
71551;DHT22;59367;48.414;9.872;2023-03-08T01:19:02;6.337070465;44.52514648
71551;DHT22;59367;48.414;9.872;2023-03-08T01:20:11;6.323719025;44.7479248
71551;DHT22;59367;48.414;9.872;2023-03-08T01:21:19;6.294345856;44.49768066
71551;DHT22;59367;48.414;9.872;2023-03-08T01:22:28;6.251621246;44.75250244
71551;DHT22;59367;48.414;9.872;2023-03-08T01:23:35;6.211566925;44.50073242
71551;DHT22;59367;48.414;9.872;2023-03-08T01:24:47;6.224918365;45.04241943
71551;DHT22;59367;48.414;9.872;2023-03-08T01:26:01;6.195545197;44.88525391
71551;DHT22;59367;48.414;9.872;2023-03-08T01:27:09;6.168842316;45.01037598
71551;DHT22;59367;48.414;9.872;2023-03-08T01:28:17;6.195545197;45.21484375
71551;DHT22;59367;48.414;9.872;2023-03-08T01:29:26;6.168842316;45.22399902
71551;DHT22;59367;48.414;9.872;2023-03-08T01:30:34;6.126117706;45.20568848
71551;DHT22;59367;48.414;9.872;2023-03-08T01:31:42;6.126117706;45.29876709
71551;DHT22;59367;48.414;9.872;2023-03-08T01:32:50;6.168842316;45.39794922
71551;DHT22;59367;48.414;9.872;2023-03-08T01:33:59;6.139469147;45.44067383
71551;DHT22;59367;48.414;9.872;2023-03-08T01:35:08;6.152820587;45.49102783
71551;DHT22;59367;48.414;9.872;2023-03-08T01:36:18;6.126117706;45.65124512
71551;DHT22;59367;48.414;9.872;2023-03-08T01:37:26;6.126117706;45.33538818
71551;DHT22;59367;48.414;9.872;2023-03-08T01:38:35;6.139469147;45.30181885
71551;DHT22;59367;48.414;9.872;2023-03-08T01:39:43;6.152820587;45.51391602
71551;DHT22;59367;48.414;9.872;2023-03-08T01:40:53;6.139469147;45.54901123
71551;DHT22;59367;48.414;9.872;2023-03-08T01:42:01;6.126117706;45.77026367
71551;DHT22;59367;48.414;9.872;2023-03-08T01:43:25;6.112762451;45.39337158
71551;DHT22;59367;48.414;9.872;2023-03-08T01:46:28;6.152820587;45.34912109
71551;DHT22;59367;48.414;9.872;2023-03-08T01:47:39;6.182193756;45.59936523
71551;DHT22;59367;48.414;9.872;2023-03-08T01:48:51;6.168842316;45.52764893
71551;DHT22;59367;48.414;9.872;2023-03-08T01:50:10;6.182193756;45.41168213
71551;DHT22;59367;48.414;9.872;2023-03-08T01:51:30;6.195545197;45.53222656
71551;DHT22;59367;48.414;9.872;2023-03-08T01:52:47;6.211566925;45.74279785
71551;DHT22;59367;48.414;9.872;2023-03-08T01:54:02;6.182193756;45.64666748
71551;DHT22;59367;48.414;9.872;2023-03-08T01:55:14;6.195545197;45.55358887
71551;DHT22;59367;48.414;9.872;2023-03-08T01:56:24;6.168842316;45.50476074
71551;DHT22;59367;48.414;9.872;2023-03-08T01:57:38;6.139469147;45.24383545
71551;DHT22;59367;48.414;9.872;2023-03-08T01:58:49;6.126117706;45.29876709
71551;DHT22;59367;48.414;9.872;2023-03-08T02:00:02;6.112762451;45.28808594
71551;DHT22;59367;48.414;9.872;2023-03-08T02:01:11;6.096740723;45.30792236
71551;DHT22;59367;48.414;9.872;2023-03-08T02:02:20;6.096740723;45.48492432
71551;DHT22;59367;48.414;9.872;2023-03-08T02:03:28;6.040664673;45.58258057
71551;DHT22;59367;48.414;9.872;2023-03-08T02:04:37;6.096740723;45.58105469
71551;DHT22;59367;48.414;9.872;2023-03-08T02:05:47;6.070037842;45.84655762
71551;DHT22;59367;48.414;9.872;2023-03-08T02:06:55;6.056686401;46.02050781
71551;DHT22;59367;48.414;9.872;2023-03-08T02:08:03;6.056686401;45.85571289
71551;DHT22;59367;48.414;9.872;2023-03-08T02:09:11;6.056686401;45.75042725
71551;DHT22;59367;48.414;9.872;2023-03-08T02:10:20;6.013961792;45.6741333
71551;DHT22;59367;48.414;9.872;2023-03-08T02:11:28;5.997940063;45.94421387
71551;DHT22;59367;48.414;9.872;2023-03-08T02:12:37;5.971237183;45.88012695
71551;DHT22;59367;48.414;9.872;2023-03-08T02:13:46;5.941864014;46.19445801
71551;DHT22;59367;48.414;9.872;2023-03-08T02:14:55;5.901809692;46.28601074
71551;DHT22;59367;48.414;9.872;2023-03-08T02:16:05;5.901809692;46.51947021
71551;DHT22;59367;48.414;9.872;2023-03-08T02:17:15;5.885787964;46.40045166
71551;DHT22;59367;48.414;9.872;2023-03-08T02:18:23;5.84305954;46.91009521
71551;DHT22;59367;48.414;9.872;2023-03-08T02:19:38;5.84305954;46.96807861
71551;DHT22;59367;48.414;9.872;2023-03-08T02:20:49;5.803005219;47.16186523
71551;DHT22;59367;48.414;9.872;2023-03-08T02:21:57;5.77363205;47.0916748
71551;DHT22;59367;48.414;9.872;2023-03-08T02:23:15;5.78698349;46.9039917
71551;DHT22;59367;48.414;9.872;2023-03-08T02:24:25;5.746929169;47.08709717
71551;DHT22;59367;48.414;9.872;2023-03-08T02:25:32;5.746929169;47.1572876
71551;DHT22;59367;48.414;9.872;2023-03-08T02:26:41;5.717556;47.45941162
71551;DHT22;59367;48.414;9.872;2023-03-08T02:27:49;5.67483139;47.4899292
71551;DHT22;59367;48.414;9.872;2023-03-08T02:28:58;5.592048645;47.2442627
71551;DHT22;59367;48.414;9.872;2023-03-08T02:30:06;5.546653748;47.4395752
71551;DHT22;59367;48.414;9.872;2023-03-08T02:31:15;5.503929138;48.00872803
71551;DHT22;59367;48.414;9.872;2023-03-08T02:32:23;5.43183136;48.03466797
71551;DHT22;59367;48.414;9.872;2023-03-08T02:33:31;5.405128479;48.23150635
71551;DHT22;59367;48.414;9.872;2023-03-08T02:34:39;5.37575531;48.3795166
71551;DHT22;59367;48.414;9.872;2023-03-08T02:35:48;5.349048615;48.53820801
71551;DHT22;59367;48.414;9.872;2023-03-08T02:36:56;5.319675446;48.66638184
71551;DHT22;59367;48.414;9.872;2023-03-08T02:38:04;5.306324005;48.78082275
71551;DHT22;59367;48.414;9.872;2023-03-08T02:39:12;5.306324005;48.46496582
71551;DHT22;59367;48.414;9.872;2023-03-08T02:40:21;5.263599396;48.70452881
71551;DHT22;59367;48.414;9.872;2023-03-08T02:41:28;5.319675446;48.60687256
71551;DHT22;59367;48.414;9.872;2023-03-08T02:42:36;5.306324005;48.97918701
71551;DHT22;59367;48.414;9.872;2023-03-08T02:43:44;5.349048615;48.75030518
71551;DHT22;59367;48.414;9.872;2023-03-08T02:44:52;5.362400055;48.93798828
71551;DHT22;59367;48.414;9.872;2023-03-08T02:46:00;5.362400055;48.77624512
71551;DHT22;59367;48.414;9.872;2023-03-08T02:47:09;5.335697174;48.73657227
71551;DHT22;59367;48.414;9.872;2023-03-08T02:48:17;5.362400055;48.9730835
71551;DHT22;59367;48.414;9.872;2023-03-08T02:49:25;5.306324005;48.91967773
71551;DHT22;59367;48.414;9.872;2023-03-08T02:50:34;5.335697174;48.50311279
71551;DHT22;59367;48.414;9.872;2023-03-08T02:51:42;5.319675446;48.97918701
71551;DHT22;59367;48.414;9.872;2023-03-08T02:52:50;5.349048615;49.39422607
71551;DHT22;59367;48.414;9.872;2023-03-08T02:53:58;5.362400055;49.09210205
71551;DHT22;59367;48.414;9.872;2023-03-08T02:55:07;5.349048615;48.56262207
71551;DHT22;59367;48.414;9.872;2023-03-08T02:56:15;5.335697174;49.42779541
71551;DHT22;59367;48.414;9.872;2023-03-08T02:57:24;5.335697174;49.29962158
71551;DHT22;59367;48.414;9.872;2023-03-08T02:58:31;5.335697174;49.72076416
71551;DHT22;59367;48.414;9.872;2023-03-08T02:59:39;5.306324005;49.44915771
71551;DHT22;59367;48.414;9.872;2023-03-08T03:00:47;5.319675446;49.35455322
71551;DHT22;59367;48.414;9.872;2023-03-08T03:01:55;5.335697174;49.47357178
71551;DHT22;59367;48.414;9.872;2023-03-08T03:03:03;5.362400055;49.20806885
71551;DHT22;59367;48.414;9.872;2023-03-08T03:04:11;5.405128479;49.40032959
71551;DHT22;59367;48.414;9.872;2023-03-08T03:05:19;5.405128479;49.5880127
71551;DHT22;59367;48.414;9.872;2023-03-08T03:06:27;5.391777039;49.50561523
71551;DHT22;59367;48.414;9.872;2023-03-08T03:07:38;5.418479919;49.59106445
71551;DHT22;59367;48.414;9.872;2023-03-08T03:08:47;5.362400055;49.89318848
71551;DHT22;59367;48.414;9.872;2023-03-08T03:09:55;5.37575531;49.77111816
71551;DHT22;59367;48.414;9.872;2023-03-08T03:11:03;5.391777039;49.57427979
71551;DHT22;59367;48.414;9.872;2023-03-08T03:12:17;5.405128479;49.61090088
71551;DHT22;59367;48.414;9.872;2023-03-08T03:13:25;5.418479919;49.68414307
71551;DHT22;59367;48.414;9.872;2023-03-08T03:14:33;5.43183136;49.81231689
71551;DHT22;59367;48.414;9.872;2023-03-08T03:15:43;5.447853088;49.93591309
71551;DHT22;59367;48.414;9.872;2023-03-08T03:16:51;5.43183136;50.07324219
71551;DHT22;59367;48.414;9.872;2023-03-08T03:17:59;5.447853088;50.01220703
71551;DHT22;59367;48.414;9.872;2023-03-08T03:19:07;5.447853088;50.17242432
71551;DHT22;59367;48.414;9.872;2023-03-08T03:20:18;5.447853088;50.1953125
71551;DHT22;59367;48.414;9.872;2023-03-08T03:21:26;5.474555969;50.25177002
71551;DHT22;59367;48.414;9.872;2023-03-08T03:22:34;5.461204529;50.11901855
71551;DHT22;59367;48.414;9.872;2023-03-08T03:23:43;5.517280579;50.14953613
71551;DHT22;59367;48.414;9.872;2023-03-08T03:24:52;5.474555969;50.15563965
71551;DHT22;59367;48.414;9.872;2023-03-08T03:26:08;5.503929138;50.28839111
71551;DHT22;59367;48.414;9.872;2023-03-08T03:27:16;5.474555969;50.30517578
71551;DHT22;59367;48.414;9.872;2023-03-08T03:28:24;5.517280579;50.30059814
71551;DHT22;59367;48.414;9.872;2023-03-08T03:29:31;5.490577698;50.42572021
71551;DHT22;59367;48.414;9.872;2023-03-08T03:30:39;5.503929138;50.09460449
71551;DHT22;59367;48.414;9.872;2023-03-08T03:31:48;5.517280579;50.25939941
71551;DHT22;59367;48.414;9.872;2023-03-08T03:32:55;5.517280579;50.30059814
71551;DHT22;59367;48.414;9.872;2023-03-08T03:34:03;5.517280579;50.0213623
71551;DHT22;59367;48.414;9.872;2023-03-08T03:35:12;5.562675476;50.00305176
71551;DHT22;59367;48.414;9.872;2023-03-08T03:36:21;5.576026917;50.03967285
71551;DHT22;59367;48.414;9.872;2023-03-08T03:37:30;5.562675476;50.1449585
71551;DHT22;59367;48.414;9.872;2023-03-08T03:38:40;5.605400085;50.21362305
71551;DHT22;59367;48.414;9.872;2023-03-08T03:39:49;5.605400085;50.4196167
71551;DHT22;59367;48.414;9.872;2023-03-08T03:41:03;5.592048645;50.56762695
71551;DHT22;59367;48.414;9.872;2023-03-08T03:42:11;5.576026917;50.60882568
71551;DHT22;59367;48.414;9.872;2023-03-08T03:43:19;5.546653748;50.89569092
71551;DHT22;59367;48.414;9.872;2023-03-08T03:44:27;5.546653748;50.86364746
71551;DHT22;59367;48.414;9.872;2023-03-08T03:45:35;5.562675476;50.70495605
71551;DHT22;59367;48.414;9.872;2023-03-08T03:46:43;5.562675476;50.95214844
71551;DHT22;59367;48.414;9.872;2023-03-08T03:47:51;5.562675476;50.68206787
71551;DHT22;59367;48.414;9.872;2023-03-08T03:48:59;5.562675476;50.47912598
71551;DHT22;59367;48.414;9.872;2023-03-08T03:50:08;5.592048645;50.34179688
71551;DHT22;59367;48.414;9.872;2023-03-08T03:51:18;5.632106781;50.35705566
71551;DHT22;59367;48.414;9.872;2023-03-08T03:52:26;5.632106781;50.32348633
71551;DHT22;59367;48.414;9.872;2023-03-08T03:53:35;5.632106781;50.65917969
71551;DHT22;59367;48.414;9.872;2023-03-08T03:54:43;5.64812851;50.4989624
71551;DHT22;59367;48.414;9.872;2023-03-08T03:55:51;5.632106781;50.68054199
71551;DHT22;59367;48.414;9.872;2023-03-08T03:56:59;5.592048645;50.7598877
71551;DHT22;59367;48.414;9.872;2023-03-08T03:58:07;5.576026917;50.48980713
71551;DHT22;59367;48.414;9.872;2023-03-08T03:59:15;5.592048645;50.65460205
71551;DHT22;59367;48.414;9.872;2023-03-08T04:00:23;5.605400085;50.51574707
71551;DHT22;59367;48.414;9.872;2023-03-08T04:01:32;5.592048645;50.48065186
71551;DHT22;59367;48.414;9.872;2023-03-08T04:02:40;5.605400085;50.26855469
71551;DHT22;59367;48.414;9.872;2023-03-08T04:03:48;5.632106781;50.21820068
71551;DHT22;59367;48.414;9.872;2023-03-08T04:04:56;5.632106781;50.32348633
71551;DHT22;59367;48.414;9.872;2023-03-08T04:06:13;5.64812851;50.36010742
71551;DHT22;59367;48.414;9.872;2023-03-08T04:07:21;5.632106781;50.30212402
71551;DHT22;59367;48.414;9.872;2023-03-08T04:08:29;5.618751526;50.4196167
71551;DHT22;59367;48.414;9.872;2023-03-08T04:09:38;5.64812851;50.19683838
71551;DHT22;59367;48.414;9.872;2023-03-08T04:10:46;5.632106781;50.1083374
71551;DHT22;59367;48.414;9.872;2023-03-08T04:11:54;5.618751526;50.38757324
71551;DHT22;59367;48.414;9.872;2023-03-08T04:13:02;5.618751526;50.58135986
71551;DHT22;59367;48.414;9.872;2023-03-08T04:14:10;5.592048645;50.4486084
71551;DHT22;59367;48.414;9.872;2023-03-08T04:15:18;5.618751526;50.33416748
71551;DHT22;59367;48.414;9.872;2023-03-08T04:16:28;5.605400085;50.61340332
71551;DHT22;59367;48.414;9.872;2023-03-08T04:17:36;5.605400085;51.04370117
71551;DHT22;59367;48.414;9.872;2023-03-08T04:18:45;5.592048645;51.18103027
71551;DHT22;59367;48.414;9.872;2023-03-08T04:19:54;5.576026917;50.96435547
71551;DHT22;59367;48.414;9.872;2023-03-08T04:21:02;5.546653748;51.05743408
71551;DHT22;59367;48.414;9.872;2023-03-08T04:22:10;5.517280579;50.95672607
71551;DHT22;59367;48.414;9.872;2023-03-08T04:23:18;5.530632019;50.84075928
71551;DHT22;59367;48.414;9.872;2023-03-08T04:24:26;5.517280579;51.03302002
71551;DHT22;59367;48.414;9.872;2023-03-08T04:25:34;5.517280579;51.0559082
71551;DHT22;59367;48.414;9.872;2023-03-08T04:26:42;5.517280579;51.08795166
71551;DHT22;59367;48.414;9.872;2023-03-08T04:27:50;5.503929138;51.171875
71551;DHT22;59367;48.414;9.872;2023-03-08T04:28:58;5.474555969;51.02844238
71551;DHT22;59367;48.414;9.872;2023-03-08T04:30:07;5.461204529;51.19781494
71551;DHT22;59367;48.414;9.872;2023-03-08T04:31:21;5.447853088;51.00250244
71551;DHT22;59367;48.414;9.872;2023-03-08T04:32:29;5.418479919;51.27716064
71551;DHT22;59367;48.414;9.872;2023-03-08T04:33:37;5.405128479;51.68762207
71551;DHT22;59367;48.414;9.872;2023-03-08T04:34:45;5.391777039;51.71661377
71551;DHT22;59367;48.414;9.872;2023-03-08T04:35:53;5.37575531;51.81121826
71551;DHT22;59367;48.414;9.872;2023-03-08T04:37:01;5.362400055;51.95007324
71551;DHT22;59367;48.414;9.872;2023-03-08T04:38:09;5.362400055;51.96228027
71551;DHT22;59367;48.414;9.872;2023-03-08T04:39:17;5.362400055;51.86309814
71551;DHT22;59367;48.414;9.872;2023-03-08T04:40:25;5.362400055;51.61590576
71551;DHT22;59367;48.414;9.872;2023-03-08T04:41:33;5.362400055;51.79901123
71551;DHT22;59367;48.414;9.872;2023-03-08T04:42:42;5.349048615;51.68914795
71551;DHT22;59367;48.414;9.872;2023-03-08T04:43:52;5.335697174;51.56860352
71551;DHT22;59367;48.414;9.872;2023-03-08T04:45:01;5.306324005;51.6418457
71551;DHT22;59367;48.414;9.872;2023-03-08T04:46:10;5.263599396;51.85241699
71551;DHT22;59367;48.414;9.872;2023-03-08T04:47:18;5.292972565;51.88598633
71551;DHT22;59367;48.414;9.872;2023-03-08T04:48:26;5.292972565;52.00500488
71551;DHT22;59367;48.414;9.872;2023-03-08T04:49:34;5.263599396;51.94854736
71551;DHT22;59367;48.414;9.872;2023-03-08T04:50:42;5.250247955;51.82647705
71551;DHT22;59367;48.414;9.872;2023-03-08T04:51:50;5.263599396;51.98059082
71551;DHT22;59367;48.414;9.872;2023-03-08T04:52:58;5.263599396;52.3147583
71551;DHT22;59367;48.414;9.872;2023-03-08T04:54:06;5.220874786;52.35137939
71551;DHT22;59367;48.414;9.872;2023-03-08T04:55:14;5.194171906;52.61688232
71551;DHT22;59367;48.414;9.872;2023-03-08T04:56:22;5.180820465;52.65808105
71551;DHT22;59367;48.414;9.872;2023-03-08T04:57:30;5.194171906;52.82287598
71551;DHT22;59367;48.414;9.872;2023-03-08T04:58:39;5.164798737;52.80609131
71551;DHT22;59367;48.414;9.872;2023-03-08T04:59:47;5.180820465;52.93884277
71551;DHT22;59367;48.414;9.872;2023-03-08T05:00:55;5.180820465;52.78778076
71551;DHT22;59367;48.414;9.872;2023-03-08T05:02:03;5.164798737;52.82897949
71551;DHT22;59367;48.414;9.872;2023-03-08T05:03:12;5.164798737;52.98919678
71551;DHT22;59367;48.414;9.872;2023-03-08T05:04:20;5.164798737;53.03344727
71551;DHT22;59367;48.414;9.872;2023-03-08T05:05:29;5.138095856;52.93273926
71551;DHT22;59367;48.414;9.872;2023-03-08T05:06:37;5.151447296;52.84729004
71551;DHT22;59367;48.414;9.872;2023-03-08T05:07:45;5.122070313;52.84576416
71551;DHT22;59367;48.414;9.872;2023-03-08T05:08:53;5.138095856;53.08380127
71551;DHT22;59367;48.414;9.872;2023-03-08T05:10:02;5.138095856;53.03039551
71551;DHT22;59367;48.414;9.872;2023-03-08T05:11:10;5.122070313;53.24401855
71551;DHT22;59367;48.414;9.872;2023-03-08T05:12:23;5.108718872;53.3493042
71551;DHT22;59367;48.414;9.872;2023-03-08T05:13:33;5.095367432;53.50952148
71551;DHT22;59367;48.414;9.872;2023-03-08T05:14:41;5.108718872;53.3493042
71551;DHT22;59367;48.414;9.872;2023-03-08T05:15:49;5.122070313;53.28674316
71551;DHT22;59367;48.414;9.872;2023-03-08T05:16:57;5.138095856;53.03039551
71551;DHT22;59367;48.414;9.872;2023-03-08T05:18:06;5.122070313;53.2119751
71551;DHT22;59367;48.414;9.872;2023-03-08T05:19:14;5.122070313;53.35083008
71551;DHT22;59367;48.414;9.872;2023-03-08T05:20:22;5.138095856;53.40576172
71551;DHT22;59367;48.414;9.872;2023-03-08T05:21:30;5.151447296;53.54766846
71551;DHT22;59367;48.414;9.872;2023-03-08T05:22:39;5.151447296;53.6026001
71551;DHT22;59367;48.414;9.872;2023-03-08T05:23:47;5.164798737;53.36761475
71551;DHT22;59367;48.414;9.872;2023-03-08T05:24:55;5.180820465;53.20739746
71551;DHT22;59367;48.414;9.872;2023-03-08T05:26:04;5.151447296;53.19366455
71551;DHT22;59367;48.414;9.872;2023-03-08T05:27:13;5.164798737;53.09753418
71551;DHT22;59367;48.414;9.872;2023-03-08T05:28:21;5.207523346;53.45001221
71551;DHT22;59367;48.414;9.872;2023-03-08T05:29:30;5.180820465;53.60565186
71551;DHT22;59367;48.414;9.872;2023-03-08T05:30:37;5.194171906;53.66210938
71551;DHT22;59367;48.414;9.872;2023-03-08T05:31:45;5.207523346;53.6529541
71551;DHT22;59367;48.414;9.872;2023-03-08T05:32:56;5.194171906;53.55224609
71551;DHT22;59367;48.414;9.872;2023-03-08T05:34:04;5.207523346;53.50036621
71551;DHT22;59367;48.414;9.872;2023-03-08T05:35:12;5.220874786;53.43780518
71551;DHT22;59367;48.414;9.872;2023-03-08T05:36:20;5.236896515;53.34472656
71551;DHT22;59367;48.414;9.872;2023-03-08T05:37:28;5.207523346;53.25469971
71551;DHT22;59367;48.414;9.872;2023-03-08T05:38:37;5.250247955;53.47442627
71551;DHT22;59367;48.414;9.872;2023-03-08T05:39:45;5.220874786;53.51409912
71551;DHT22;59367;48.414;9.872;2023-03-08T05:40:54;5.250247955;53.59344482
71551;DHT22;59367;48.414;9.872;2023-03-08T05:42:06;5.250247955;53.57055664
71551;DHT22;59367;48.414;9.872;2023-03-08T05:43:14;5.263599396;53.6605835
71551;DHT22;59367;48.414;9.872;2023-03-08T05:44:22;5.276950836;53.74755859
71551;DHT22;59367;48.414;9.872;2023-03-08T05:45:31;5.306324005;53.83605957
71551;DHT22;59367;48.414;9.872;2023-03-08T05:46:40;5.276950836;53.70330811
71551;DHT22;59367;48.414;9.872;2023-03-08T05:47:47;5.292972565;53.70635986
71551;DHT22;59367;48.414;9.872;2023-03-08T05:48:58;5.319675446;53.75366211
71551;DHT22;59367;48.414;9.872;2023-03-08T05:50:07;5.306324005;53.96728516
71551;DHT22;59367;48.414;9.872;2023-03-08T05:51:17;5.292972565;54.14733887
71551;DHT22;59367;48.414;9.872;2023-03-08T05:52:25;5.306324005;54.27856445
71551;DHT22;59367;48.414;9.872;2023-03-08T05:53:34;5.292972565;54.31060791
71551;DHT22;59367;48.414;9.872;2023-03-08T05:54:42;5.319675446;54.40826416
71551;DHT22;59367;48.414;9.872;2023-03-08T05:55:50;5.306324005;54.33349609
71551;DHT22;59367;48.414;9.872;2023-03-08T05:56:58;5.319675446;54.32434082
71551;DHT22;59367;48.414;9.872;2023-03-08T05:58:06;5.335697174;54.22821045
71551;DHT22;59367;48.414;9.872;2023-03-08T05:59:14;5.319675446;54.08782959
71551;DHT22;59367;48.414;9.872;2023-03-08T06:00:23;5.306324005;54.08630371
71551;DHT22;59367;48.414;9.872;2023-03-08T06:01:31;5.319675446;54.1519165
71551;DHT22;59367;48.414;9.872;2023-03-08T06:02:40;5.349048615;54.33807373
71551;DHT22;59367;48.414;9.872;2023-03-08T06:03:50;5.349048615;54.25262451
71551;DHT22;59367;48.414;9.872;2023-03-08T06:04:58;5.349048615;54.38079834
71551;DHT22;59367;48.414;9.872;2023-03-08T06:06:07;5.335697174;54.55322266
71551;DHT22;59367;48.414;9.872;2023-03-08T06:07:14;5.349048615;54.53186035
71551;DHT22;59367;48.414;9.872;2023-03-08T06:08:22;5.391777039;54.50439453
71551;DHT22;59367;48.414;9.872;2023-03-08T06:09:31;5.362400055;54.59899902